Rising Eagle — J8B4538 — position and weather

sailwx.info

Track history (hours):
 
Tides and Currents Weather Stations Pressure Air Temp Water Temp Dewpoint Dewpoint Depression Visibility Wind Speed Wind Dir Waves Ship Positions

Rising Eagle

Last reported at 2015-May-01 21:20 UTC. Time now 2015-May-07 07:38 UTC.
Position N 39°55' E 019°08'.

Length 167 m; draft 10 m.

Type: Cargo ship. MMSI: 376369000.

Date/timePositionNaut miles runAvg speedWind from/ knotsBaromVisibWave heightAir tempDewpointWater temp
2015-May-01 21:20N 39°55' E 019°08'1012.3
2015-May-01 20:32N 39°46' E 019°13'1212.1
2015-May-01 19:33N 39°35' E 019°18'1711.8
2015-May-01 18:09N 39°20' E 019°26'711.8
2015-May-01 17:33N 39°13' E 019°29'1211.9
2015-May-01 16:33N 39°03' E 019°37'229 8.0
2015-Apr-30 12:06N 37°23' E 023°59'2512.2
2015-Apr-30 10:04N 37°44' E 024°17'16311.8
2015-Apr-29 20:15N 40°01' E 026°07'165 6.6
2015-Apr-28 19:19N 41°24' E 029°15'0 0.3
2015-Apr-28 18:16N 41°24' E 029°15'16 9.3
2015-Apr-28 16:33N 41°40' E 029°15'23211.6
2015-Apr-27 20:33N 45°23' E 030°46'1111.4
2015-Apr-27 19:34N 45°34' E 030°51'1211.5
2015-Apr-27 18:30N 45°45' E 030°56'2311.4
2015-Apr-27 16:32N 46°07' E 031°05'1111.5
2015-Apr-27 15:34N 46°15' E 030°53'9 9.4
2015-Apr-27 14:33N 46°19' E 030°41'1 0.0
2015-Apr-26 00:29N 46°20' E 030°39'0 0.0
2015-Apr-25 23:33N 46°20' E 030°39'0 0.0
2015-Apr-25 22:33N 46°20' E 030°39'0 0.0
2015-Apr-25 21:33N 46°20' E 030°39'0 0.0
2015-Apr-25 20:28N 46°20' E 030°39'0 0.0
2015-Apr-25 19:33N 46°20' E 030°39'0 0.0
2015-Apr-25 18:06N 46°20' E 030°39'0 0.0
2015-Apr-25 06:33N 46°20' E 030°39'0 0.0
2015-Apr-25 05:33N 46°20' E 030°39'0 0.0
2015-Apr-25 04:28N 46°20' E 030°39'0 0.0
2015-Apr-25 03:34N 46°20' E 030°39'0 0.0
2015-Apr-25 02:34N 46°20' E 030°39'0 0.0
2015-Apr-25 01:33N 46°20' E 030°39'0 0.0
2015-Apr-25 00:34N 46°20' E 030°39'0 0.0
2015-Apr-24 23:33N 46°20' E 030°39'0 0.0
2015-Apr-24 22:34N 46°20' E 030°39'0 0.0
2015-Apr-24 21:33N 46°20' E 030°39'0 0.0
2015-Apr-24 20:27N 46°20' E 030°39'0 0.0
2015-Apr-24 19:33N 46°20' E 030°39'0 0.0
2015-Apr-24 17:18N 46°20' E 030°39'19 2.4
2015-Apr-24 09:07N 46°12' E 031°05'12 7.4
2015-Apr-24 07:33N 46°01' E 031°08'31412.8
2015-Apr-23 07:05N 41°01' E 028°60'4 6.9
2015-Apr-23 06:33N 40°57' E 028°59'10 9.7
2015-Apr-23 05:33N 40°48' E 028°55'8 7.9
2015-Apr-23 04:33N 40°40' E 028°55'1 0.5
2015-Apr-23 03:33N 40°40' E 028°56'1 0.8
2015-Apr-23 02:34N 40°40' E 028°57'1 0.6
2015-Apr-23 01:34N 40°41' E 028°57'1 0.7
2015-Apr-23 00:33N 40°42' E 028°58'1 0.5
2015-Apr-22 23:33N 40°42' E 028°58'1 0.6
2015-Apr-22 22:33N 40°43' E 028°59'0 0.5
2015-Apr-22 21:32N 40°43' E 028°59'1 0.7
2015-Apr-22 20:32N 40°44' E 028°60'1 0.9
2015-Apr-22 19:33N 40°44' E 029°00'1 0.9
2015-Apr-22 18:33N 40°45' E 029°01'5 5.4
2015-Apr-22 17:34N 40°44' E 029°09'7 7.3
2015-Apr-22 16:34N 40°44' E 029°18'7 7.2
2015-Apr-22 15:32N 40°42' E 029°27'0 0.0
2015-Apr-22 11:32N 40°42' E 029°27'0 0.0
2015-Apr-22 10:08N 40°42' E 029°27'0 0.0
2015-Apr-22 09:32N 40°42' E 029°27'0 0.0
2015-Apr-22 08:20N 40°42' E 029°27'0 0.0
2015-Apr-22 07:32N 40°42' E 029°27'0 0.0
2015-Apr-22 06:32N 40°42' E 029°27'  
Track history (hours):
 
Tides and Currents Weather Stations Pressure Air Temp Water Temp Dewpoint Dewpoint Depression Visibility Wind Speed Wind Dir Waves Ship Positions

Rising Eagle

Last reported at 2015-May-01 21:20 UTC. Time now 2015-May-07 07:38 UTC.
Position N 39°55' E 019°08'.

Length 167 m; draft 10 m.

Type: Cargo ship. MMSI: 376369000.

Date/timePositionNaut miles runAvg speedWind from/ knotsBaromVisibWave heightAir tempDewpointWater temp
2015-May-01 21:20N 39°55' E 019°08'1012.3
2015-May-01 20:32N 39°46' E 019°13'1212.1
2015-May-01 19:33N 39°35' E 019°18'1711.8
2015-May-01 18:09N 39°20' E 019°26'711.8
2015-May-01 17:33N 39°13' E 019°29'1211.9
2015-May-01 16:33N 39°03' E 019°37'229 8.0
2015-Apr-30 12:06N 37°23' E 023°59'2512.2
2015-Apr-30 10:04N 37°44' E 024°17'16311.8
2015-Apr-29 20:15N 40°01' E 026°07'165 6.6
2015-Apr-28 19:19N 41°24' E 029°15'0 0.3
2015-Apr-28 18:16N 41°24' E 029°15'16 9.3
2015-Apr-28 16:33N 41°40' E 029°15'23211.6
2015-Apr-27 20:33N 45°23' E 030°46'1111.4
2015-Apr-27 19:34N 45°34' E 030°51'1211.5
2015-Apr-27 18:30N 45°45' E 030°56'2311.4
2015-Apr-27 16:32N 46°07' E 031°05'1111.5
2015-Apr-27 15:34N 46°15' E 030°53'9 9.4
2015-Apr-27 14:33N 46°19' E 030°41'1 0.0
2015-Apr-26 00:29N 46°20' E 030°39'0 0.0
2015-Apr-25 23:33N 46°20' E 030°39'0 0.0
2015-Apr-25 22:33N 46°20' E 030°39'0 0.0
2015-Apr-25 21:33N 46°20' E 030°39'0 0.0
2015-Apr-25 20:28N 46°20' E 030°39'0 0.0
2015-Apr-25 19:33N 46°20' E 030°39'0 0.0
2015-Apr-25 18:06N 46°20' E 030°39'0 0.0
2015-Apr-25 06:33N 46°20' E 030°39'0 0.0
2015-Apr-25 05:33N 46°20' E 030°39'0 0.0
2015-Apr-25 04:28N 46°20' E 030°39'0 0.0
2015-Apr-25 03:34N 46°20' E 030°39'0 0.0
2015-Apr-25 02:34N 46°20' E 030°39'0 0.0
2015-Apr-25 01:33N 46°20' E 030°39'0 0.0
2015-Apr-25 00:34N 46°20' E 030°39'0 0.0
2015-Apr-24 23:33N 46°20' E 030°39'0 0.0
2015-Apr-24 22:34N 46°20' E 030°39'0 0.0
2015-Apr-24 21:33N 46°20' E 030°39'0 0.0
2015-Apr-24 20:27N 46°20' E 030°39'0 0.0
2015-Apr-24 19:33N 46°20' E 030°39'0 0.0
2015-Apr-24 17:18N 46°20' E 030°39'19 2.4
2015-Apr-24 09:07N 46°12' E 031°05'12 7.4
2015-Apr-24 07:33N 46°01' E 031°08'31412.8
2015-Apr-23 07:05N 41°01' E 028°60'4 6.9
2015-Apr-23 06:33N 40°57' E 028°59'10 9.7
2015-Apr-23 05:33N 40°48' E 028°55'8 7.9
2015-Apr-23 04:33N 40°40' E 028°55'1 0.5
2015-Apr-23 03:33N 40°40' E 028°56'1 0.8
2015-Apr-23 02:34N 40°40' E 028°57'1 0.6
2015-Apr-23 01:34N 40°41' E 028°57'1 0.7
2015-Apr-23 00:33N 40°42' E 028°58'1 0.5
2015-Apr-22 23:33N 40°42' E 028°58'1 0.6
2015-Apr-22 22:33N 40°43' E 028°59'0 0.5
2015-Apr-22 21:32N 40°43' E 028°59'1 0.7
2015-Apr-22 20:32N 40°44' E 028°60'1 0.9
2015-Apr-22 19:33N 40°44' E 029°00'1 0.9
2015-Apr-22 18:33N 40°45' E 029°01'5 5.4
2015-Apr-22 17:34N 40°44' E 029°09'7 7.3
2015-Apr-22 16:34N 40°44' E 029°18'7 7.2
2015-Apr-22 15:32N 40°42' E 029°27'0 0.0
2015-Apr-22 11:32N 40°42' E 029°27'0 0.0
2015-Apr-22 10:08N 40°42' E 029°27'0 0.0
2015-Apr-22 09:32N 40°42' E 029°27'0 0.0
2015-Apr-22 08:20N 40°42' E 029°27'0 0.0
2015-Apr-22 07:32N 40°42' E 029°27'0 0.0
2015-Apr-22 06:32N 40°42' E 029°27'  

Dump ship's entire track history